Moby Aki — IBVV — position and weather

sailwx.info

Track history (hours):
 
Tides and Currents Weather Stations Pressure Air Temp Water Temp Dewpoint Dewpoint Depression Visibility Wind Speed Wind Dir Waves Ship Positions

Moby Aki

Last reported at 2016-Feb-08 22:32 UTC. Time now 2016-Feb-09 07:36 UTC.
Position N 43°01' E 010°02'.

Length 175 m; draft 6.9 m.

Type: Passenger vessel. MMSI: 247132400.

Date/timePositionNaut miles runAvg speedWind from/ knotsBaromVisibWave heightAir tempDewpointWater temp
2016-Feb-08 22:32N 43°01' E 010°02'2020.7
2016-Feb-08 21:33N 43°21' E 010°09'1413.9
2016-Feb-08 20:33N 43°33' E 010°18'0 0.0
2016-Feb-08 19:33N 43°33' E 010°18'0 0.0
2016-Feb-08 18:33N 43°33' E 010°18'0 0.0
2016-Feb-08 17:32N 43°33' E 010°18'0 0.0
2016-Feb-08 16:32N 43°33' E 010°18'0 0.0
2016-Feb-08 15:32N 43°33' E 010°18'0 0.0
2016-Feb-08 14:29N 43°33' E 010°18'0 0.0
2016-Feb-08 13:32N 43°33' E 010°18'0 0.0
2016-Feb-08 12:31N 43°33' E 010°18'0 0.0
2016-Feb-08 11:31N 43°33' E 010°18'0 0.0
2016-Feb-08 10:31N 43°33' E 010°18'0 0.0
2016-Feb-08 09:25N 43°33' E 010°18'0 0.0
2016-Feb-08 08:31N 43°33' E 010°18'0 0.0
2016-Feb-08 07:31N 43°33' E 010°18'0 0.0
2016-Feb-08 06:31N 43°33' E 010°18'0 0.0
2016-Feb-08 05:31N 43°33' E 010°18'7 7.4
2016-Feb-08 04:34N 43°27' E 010°12'2020.1
2016-Feb-08 03:33N 43°08' E 010°05'6 0.2
2016-Feb-06 22:26N 43°02' E 010°04'1821.2
2016-Feb-06 21:33N 43°20' E 010°11'1414.0
2016-Feb-06 20:32N 43°33' E 010°18'0 0.0
2016-Feb-06 19:29N 43°33' E 010°18'0 0.0
2016-Feb-06 18:31N 43°33' E 010°18'0 0.0
2016-Feb-06 17:31N 43°33' E 010°18'0 0.0
2016-Feb-06 16:28N 43°33' E 010°18'0 0.0
2016-Feb-06 15:31N 43°33' E 010°18'0 0.0
2016-Feb-06 14:31N 43°33' E 010°18'0 0.0
2016-Feb-06 13:31N 43°33' E 010°18'0 0.0
2016-Feb-06 12:31N 43°33' E 010°18'0 0.0
2016-Feb-06 11:31N 43°33' E 010°18'0 0.0
2016-Feb-06 10:31N 43°33' E 010°18'0 0.0
2016-Feb-06 09:28N 43°33' E 010°18'0 0.0
2016-Feb-06 08:31N 43°33' E 010°18'0 0.0
2016-Feb-06 07:33N 43°33' E 010°18'0 0.0
2016-Feb-06 06:33N 43°33' E 010°18'0 0.0
2016-Feb-06 05:33N 43°33' E 010°18'7 7.2
2016-Feb-06 04:33N 43°27' E 010°12'2020.4
2016-Feb-06 03:34N 43°07' E 010°07'8 0.3
2016-Feb-04 22:32N 43°00' E 010°03'2121.0
2016-Feb-04 21:33N 43°20' E 010°10'1414.1
2016-Feb-04 20:33N 43°33' E 010°18'0 0.0
2016-Feb-04 19:33N 43°33' E 010°18'0 0.0
2016-Feb-04 18:32N 43°33' E 010°18'0 0.0
2016-Feb-04 17:29N 43°33' E 010°18'0 0.0
2016-Feb-04 16:32N 43°33' E 010°18'0 0.0
2016-Feb-04 15:32N 43°33' E 010°18'0 0.0
2016-Feb-04 14:32N 43°33' E 010°18'0 0.0
2016-Feb-04 13:32N 43°33' E 010°18'0 0.0
2016-Feb-04 12:31N 43°33' E 010°18'0 0.0
2016-Feb-04 11:31N 43°33' E 010°18'0 0.0
2016-Feb-04 10:31N 43°33' E 010°18'0 0.0
2016-Feb-04 09:32N 43°33' E 010°18'0 0.0
2016-Feb-04 08:31N 43°33' E 010°18'0 0.0
2016-Feb-04 07:31N 43°33' E 010°18'0 0.0
2016-Feb-04 06:31N 43°33' E 010°18'0 0.0
2016-Feb-04 05:31N 43°33' E 010°18'8 8.2
2016-Feb-04 04:34N 43°27' E 010°12'2020.4
2016-Feb-04 03:33N 43°06' E 010°07'3 0.1
2016-Feb-02 22:17N 43°04' E 010°04'1520.9
2016-Feb-02 21:34N 43°19' E 010°09'1615.5
2016-Feb-02 20:33N 43°33' E 010°18'0 0.1
2016-Feb-02 19:33N 43°33' E 010°18'0 0.0
2016-Feb-02 18:28N 43°33' E 010°18'0 0.0
2016-Feb-02 17:31N 43°33' E 010°18'0 0.0
2016-Feb-02 16:28N 43°33' E 010°18'0 0.0
2016-Feb-02 15:31N 43°33' E 010°18'0 0.0
2016-Feb-02 14:31N 43°33' E 010°18'0 0.0
2016-Feb-02 13:31N 43°33' E 010°18'0 0.0
2016-Feb-02 12:31N 43°33' E 010°18'0 0.0
2016-Feb-02 11:28N 43°33' E 010°18'0 0.0
2016-Feb-02 10:31N 43°33' E 010°18'0 0.0
2016-Feb-02 09:33N 43°33' E 010°18'0 0.0
2016-Feb-02 08:33N 43°33' E 010°18'0 0.0
2016-Feb-02 07:33N 43°33' E 010°18'0 0.0
2016-Feb-02 06:33N 43°33' E 010°18'0 0.0
2016-Feb-02 05:33N 43°33' E 010°18'7 6.7
2016-Feb-02 04:33N 43°28' E 010°12'1818.5
2016-Feb-02 03:34N 43°10' E 010°06'10 0.3
2016-Jan-31 22:34N 43°01' E 010°04'2020.3
2016-Jan-31 21:33N 43°20' E 010°09'1414.2
2016-Jan-31 20:33N 43°33' E 010°18'0 0.0
2016-Jan-31 19:32N 43°33' E 010°18'0 0.0
2016-Jan-31 18:31N 43°33' E 010°18'0 0.0
2016-Jan-31 17:31N 43°33' E 010°18'0 0.0
2016-Jan-31 16:31N 43°33' E 010°18'0 0.0
2016-Jan-31 15:31N 43°33' E 010°18'0 0.0
2016-Jan-31 14:28N 43°33' E 010°18'0 0.0
2016-Jan-31 13:31N 43°33' E 010°18'0 0.0
2016-Jan-31 12:33N 43°33' E 010°18'0 0.0
2016-Jan-31 11:33N 43°33' E 010°18'0 0.0
2016-Jan-31 10:33N 43°33' E 010°18'0 0.0
2016-Jan-31 09:33N 43°33' E 010°18'0 0.0
2016-Jan-31 08:33N 43°33' E 010°18'0 0.0
2016-Jan-31 07:32N 43°33' E 010°18'0 0.0
2016-Jan-31 06:33N 43°33' E 010°18'0 0.0
2016-Jan-31 05:33N 43°33' E 010°18'8 7.7
2016-Jan-31 04:34N 43°27' E 010°11'1818.4
2016-Jan-31 03:33N 43°09' E 010°06'  
Track history (hours):
 
Tides and Currents Weather Stations Pressure Air Temp Water Temp Dewpoint Dewpoint Depression Visibility Wind Speed Wind Dir Waves Ship Positions

Moby Aki

Last reported at 2016-Feb-08 22:32 UTC. Time now 2016-Feb-09 07:36 UTC.
Position N 43°01' E 010°02'.

Length 175 m; draft 6.9 m.

Type: Passenger vessel. MMSI: 247132400.

Date/timePositionNaut miles runAvg speedWind from/ knotsBaromVisibWave heightAir tempDewpointWater temp
2016-Feb-08 22:32N 43°01' E 010°02'2020.7
2016-Feb-08 21:33N 43°21' E 010°09'1413.9
2016-Feb-08 20:33N 43°33' E 010°18'0 0.0
2016-Feb-08 19:33N 43°33' E 010°18'0 0.0
2016-Feb-08 18:33N 43°33' E 010°18'0 0.0
2016-Feb-08 17:32N 43°33' E 010°18'0 0.0
2016-Feb-08 16:32N 43°33' E 010°18'0 0.0
2016-Feb-08 15:32N 43°33' E 010°18'0 0.0
2016-Feb-08 14:29N 43°33' E 010°18'0 0.0
2016-Feb-08 13:32N 43°33' E 010°18'0 0.0
2016-Feb-08 12:31N 43°33' E 010°18'0 0.0
2016-Feb-08 11:31N 43°33' E 010°18'0 0.0
2016-Feb-08 10:31N 43°33' E 010°18'0 0.0
2016-Feb-08 09:25N 43°33' E 010°18'0 0.0
2016-Feb-08 08:31N 43°33' E 010°18'0 0.0
2016-Feb-08 07:31N 43°33' E 010°18'0 0.0
2016-Feb-08 06:31N 43°33' E 010°18'0 0.0
2016-Feb-08 05:31N 43°33' E 010°18'7 7.4
2016-Feb-08 04:34N 43°27' E 010°12'2020.1
2016-Feb-08 03:33N 43°08' E 010°05'6 0.2
2016-Feb-06 22:26N 43°02' E 010°04'1821.2
2016-Feb-06 21:33N 43°20' E 010°11'1414.0
2016-Feb-06 20:32N 43°33' E 010°18'0 0.0
2016-Feb-06 19:29N 43°33' E 010°18'0 0.0
2016-Feb-06 18:31N 43°33' E 010°18'0 0.0
2016-Feb-06 17:31N 43°33' E 010°18'0 0.0
2016-Feb-06 16:28N 43°33' E 010°18'0 0.0
2016-Feb-06 15:31N 43°33' E 010°18'0 0.0
2016-Feb-06 14:31N 43°33' E 010°18'0 0.0
2016-Feb-06 13:31N 43°33' E 010°18'0 0.0
2016-Feb-06 12:31N 43°33' E 010°18'0 0.0
2016-Feb-06 11:31N 43°33' E 010°18'0 0.0
2016-Feb-06 10:31N 43°33' E 010°18'0 0.0
2016-Feb-06 09:28N 43°33' E 010°18'0 0.0
2016-Feb-06 08:31N 43°33' E 010°18'0 0.0
2016-Feb-06 07:33N 43°33' E 010°18'0 0.0
2016-Feb-06 06:33N 43°33' E 010°18'0 0.0
2016-Feb-06 05:33N 43°33' E 010°18'7 7.2
2016-Feb-06 04:33N 43°27' E 010°12'2020.4
2016-Feb-06 03:34N 43°07' E 010°07'8 0.3
2016-Feb-04 22:32N 43°00' E 010°03'2121.0
2016-Feb-04 21:33N 43°20' E 010°10'1414.1
2016-Feb-04 20:33N 43°33' E 010°18'0 0.0
2016-Feb-04 19:33N 43°33' E 010°18'0 0.0
2016-Feb-04 18:32N 43°33' E 010°18'0 0.0
2016-Feb-04 17:29N 43°33' E 010°18'0 0.0
2016-Feb-04 16:32N 43°33' E 010°18'0 0.0
2016-Feb-04 15:32N 43°33' E 010°18'0 0.0
2016-Feb-04 14:32N 43°33' E 010°18'0 0.0
2016-Feb-04 13:32N 43°33' E 010°18'0 0.0
2016-Feb-04 12:31N 43°33' E 010°18'0 0.0
2016-Feb-04 11:31N 43°33' E 010°18'0 0.0
2016-Feb-04 10:31N 43°33' E 010°18'0 0.0
2016-Feb-04 09:32N 43°33' E 010°18'0 0.0
2016-Feb-04 08:31N 43°33' E 010°18'0 0.0
2016-Feb-04 07:31N 43°33' E 010°18'0 0.0
2016-Feb-04 06:31N 43°33' E 010°18'0 0.0
2016-Feb-04 05:31N 43°33' E 010°18'8 8.2
2016-Feb-04 04:34N 43°27' E 010°12'2020.4
2016-Feb-04 03:33N 43°06' E 010°07'3 0.1
2016-Feb-02 22:17N 43°04' E 010°04'1520.9
2016-Feb-02 21:34N 43°19' E 010°09'1615.5
2016-Feb-02 20:33N 43°33' E 010°18'0 0.1
2016-Feb-02 19:33N 43°33' E 010°18'0 0.0
2016-Feb-02 18:28N 43°33' E 010°18'0 0.0
2016-Feb-02 17:31N 43°33' E 010°18'0 0.0
2016-Feb-02 16:28N 43°33' E 010°18'0 0.0
2016-Feb-02 15:31N 43°33' E 010°18'0 0.0
2016-Feb-02 14:31N 43°33' E 010°18'0 0.0
2016-Feb-02 13:31N 43°33' E 010°18'0 0.0
2016-Feb-02 12:31N 43°33' E 010°18'0 0.0
2016-Feb-02 11:28N 43°33' E 010°18'0 0.0
2016-Feb-02 10:31N 43°33' E 010°18'0 0.0
2016-Feb-02 09:33N 43°33' E 010°18'0 0.0
2016-Feb-02 08:33N 43°33' E 010°18'0 0.0
2016-Feb-02 07:33N 43°33' E 010°18'0 0.0
2016-Feb-02 06:33N 43°33' E 010°18'0 0.0
2016-Feb-02 05:33N 43°33' E 010°18'7 6.7
2016-Feb-02 04:33N 43°28' E 010°12'1818.5
2016-Feb-02 03:34N 43°10' E 010°06'10 0.3
2016-Jan-31 22:34N 43°01' E 010°04'2020.3
2016-Jan-31 21:33N 43°20' E 010°09'1414.2
2016-Jan-31 20:33N 43°33' E 010°18'0 0.0
2016-Jan-31 19:32N 43°33' E 010°18'0 0.0
2016-Jan-31 18:31N 43°33' E 010°18'0 0.0
2016-Jan-31 17:31N 43°33' E 010°18'0 0.0
2016-Jan-31 16:31N 43°33' E 010°18'0 0.0
2016-Jan-31 15:31N 43°33' E 010°18'0 0.0
2016-Jan-31 14:28N 43°33' E 010°18'0 0.0
2016-Jan-31 13:31N 43°33' E 010°18'0 0.0
2016-Jan-31 12:33N 43°33' E 010°18'0 0.0
2016-Jan-31 11:33N 43°33' E 010°18'0 0.0
2016-Jan-31 10:33N 43°33' E 010°18'0 0.0
2016-Jan-31 09:33N 43°33' E 010°18'0 0.0
2016-Jan-31 08:33N 43°33' E 010°18'0 0.0
2016-Jan-31 07:32N 43°33' E 010°18'0 0.0
2016-Jan-31 06:33N 43°33' E 010°18'0 0.0
2016-Jan-31 05:33N 43°33' E 010°18'8 7.7
2016-Jan-31 04:34N 43°27' E 010°11'1818.4
2016-Jan-31 03:33N 43°09' E 010°06'  

Dump ship's entire track history